Atkins, Iowa
Current Conditions -  °F | °C
As of 8:06 AM on Monday 26 Jan 2015 (Local Time) from KCID Reporting Station
Haze Haze  
Wind Chill: -11°   Ceiling: 1600
Heat Index: -5°   Visibility: 6mi
Dew Point: -6°   Wind: 10mph
Humidity: 92%   Direction: 160°SSE
Pressure: 29.86"   Gusts: NA
Location:  42°N, 91.86°W
Report Text: KCID 261406Z 16009KT 6SM BR OVC016 M05/M06 A2986 RMK AO2 SNE06 P0000 T10501061
Loading
Personal Weather Stations






























Interactive Weather Map New forecast layout! Learn more

10-Day Weather Forecast

Advertisements
Track Severe Weather on mobile